sensor_id;sensor_type;location;lat;lon;timestamp;P1;durP1;ratioP1;P2;durP2;ratioP2
29430;SDS011;16404;49.902;10.074;2022-12-18T00:01:28;62.25;;;25.95;;
29430;SDS011;16404;49.902;10.074;2022-12-18T00:04:18;62.10;;;26.30;;
29430;SDS011;16404;49.902;10.074;2022-12-18T00:07:05;65.93;;;29.20;;
29430;SDS011;16404;49.902;10.074;2022-12-18T00:09:50;63.42;;;26.38;;
29430;SDS011;16404;49.902;10.074;2022-12-18T00:12:35;71.28;;;28.33;;
29430;SDS011;16404;49.902;10.074;2022-12-18T00:15:19;60.45;;;26.55;;
29430;SDS011;16404;49.902;10.074;2022-12-18T00:18:04;64.70;;;28.20;;
29430;SDS011;16404;49.902;10.074;2022-12-18T00:20:48;73.68;;;29.63;;
29430;SDS011;16404;49.902;10.074;2022-12-18T00:23:33;63.05;;;27.15;;
29430;SDS011;16404;49.902;10.074;2022-12-18T00:26:23;65.90;;;28.30;;
29430;SDS011;16404;49.902;10.074;2022-12-18T00:29:16;71.13;;;29.75;;
29430;SDS011;16404;49.902;10.074;2022-12-18T00:32:00;65.22;;;27.27;;
29430;SDS011;16404;49.902;10.074;2022-12-18T00:34:45;70.68;;;28.10;;
29430;SDS011;16404;49.902;10.074;2022-12-18T00:37:30;65.80;;;27.90;;
29430;SDS011;16404;49.902;10.074;2022-12-18T00:40:14;71.03;;;28.30;;
29430;SDS011;16404;49.902;10.074;2022-12-18T00:42:59;72.82;;;27.90;;
29430;SDS011;16404;49.902;10.074;2022-12-18T00:45:43;62.78;;;27.17;;
29430;SDS011;16404;49.902;10.074;2022-12-18T00:48:28;70.20;;;27.98;;
29430;SDS011;16404;49.902;10.074;2022-12-18T00:51:13;70.75;;;29.73;;
29430;SDS011;16404;49.902;10.074;2022-12-18T00:53:58;71.90;;;28.73;;
29430;SDS011;16404;49.902;10.074;2022-12-18T00:56:43;64.95;;;27.67;;
29430;SDS011;16404;49.902;10.074;2022-12-18T00:59:28;62.83;;;27.35;;
29430;SDS011;16404;49.902;10.074;2022-12-18T01:02:14;61.90;;;27.15;;
29430;SDS011;16404;49.902;10.074;2022-12-18T01:04:58;63.20;;;28.02;;
29430;SDS011;16404;49.902;10.074;2022-12-18T01:10:27;61.05;;;26.08;;
29430;SDS011;16404;49.902;10.074;2022-12-18T01:13:14;65.40;;;26.67;;
29430;SDS011;16404;49.902;10.074;2022-12-18T01:15:59;59.97;;;24.08;;
29430;SDS011;16404;49.902;10.074;2022-12-18T01:18:44;67.70;;;27.48;;
29430;SDS011;16404;49.902;10.074;2022-12-18T01:21:29;61.08;;;24.83;;
29430;SDS011;16404;49.902;10.074;2022-12-18T01:24:14;60.45;;;25.42;;
29430;SDS011;16404;49.902;10.074;2022-12-18T01:26:59;61.33;;;26.02;;
29430;SDS011;16404;49.902;10.074;2022-12-18T01:29:43;60.40;;;26.20;;
29430;SDS011;16404;49.902;10.074;2022-12-18T01:32:29;58.17;;;25.67;;
29430;SDS011;16404;49.902;10.074;2022-12-18T01:35:15;62.55;;;23.90;;
29430;SDS011;16404;49.902;10.074;2022-12-18T01:37:59;59.20;;;25.88;;
29430;SDS011;16404;49.902;10.074;2022-12-18T01:40:45;65.10;;;26.13;;
29430;SDS011;16404;49.902;10.074;2022-12-18T01:46:38;62.38;;;24.48;;
29430;SDS011;16404;49.902;10.074;2022-12-18T01:49:22;56.88;;;23.67;;
29430;SDS011;16404;49.902;10.074;2022-12-18T01:52:07;61.72;;;24.40;;
29430;SDS011;16404;49.902;10.074;2022-12-18T01:54:51;52.33;;;23.17;;
29430;SDS011;16404;49.902;10.074;2022-12-18T01:57:37;52.42;;;23.75;;
29430;SDS011;16404;49.902;10.074;2022-12-18T02:00:23;56.53;;;24.00;;
29430;SDS011;16404;49.902;10.074;2022-12-18T02:03:10;55.75;;;22.73;;
29430;SDS011;16404;49.902;10.074;2022-12-18T02:08:42;50.85;;;22.98;;
29430;SDS011;16404;49.902;10.074;2022-12-18T02:17:52;53.60;;;23.98;;
29430;SDS011;16404;49.902;10.074;2022-12-18T02:20:49;59.47;;;24.38;;
29430;SDS011;16404;49.902;10.074;2022-12-18T02:26:40;50.13;;;22.80;;
29430;SDS011;16404;49.902;10.074;2022-12-18T02:32:36;56.88;;;21.70;;
29430;SDS011;16404;49.902;10.074;2022-12-18T02:35:24;55.83;;;22.65;;
29430;SDS011;16404;49.902;10.074;2022-12-18T02:38:15;52.33;;;22.35;;
29430;SDS011;16404;49.902;10.074;2022-12-18T02:41:05;53.53;;;20.70;;
29430;SDS011;16404;49.902;10.074;2022-12-18T02:43:57;50.03;;;21.52;;
29430;SDS011;16404;49.902;10.074;2022-12-18T02:46:49;58.38;;;22.40;;
29430;SDS011;16404;49.902;10.074;2022-12-18T03:01:54;49.97;;;19.92;;
29430;SDS011;16404;49.902;10.074;2022-12-18T03:04:48;55.08;;;21.52;;
29430;SDS011;16404;49.902;10.074;2022-12-18T03:11:04;55.17;;;19.80;;
29430;SDS011;16404;49.902;10.074;2022-12-18T03:13:53;48.13;;;19.73;;
29430;SDS011;16404;49.902;10.074;2022-12-18T03:16:41;49.10;;;20.10;;
29430;SDS011;16404;49.902;10.074;2022-12-18T03:19:28;48.78;;;20.33;;
29430;SDS011;16404;49.902;10.074;2022-12-18T03:22:16;47.53;;;21.45;;
29430;SDS011;16404;49.902;10.074;2022-12-18T03:25:06;48.92;;;20.20;;
29430;SDS011;16404;49.902;10.074;2022-12-18T03:27:56;52.67;;;19.92;;
29430;SDS011;16404;49.902;10.074;2022-12-18T03:30:43;49.15;;;19.30;;
29430;SDS011;16404;49.902;10.074;2022-12-18T03:36:24;49.90;;;21.23;;
29430;SDS011;16404;49.902;10.074;2022-12-18T03:39:11;52.70;;;21.73;;
29430;SDS011;16404;49.902;10.074;2022-12-18T03:48:28;55.13;;;20.75;;
29430;SDS011;16404;49.902;10.074;2022-12-18T03:51:24;50.30;;;20.13;;
29430;SDS011;16404;49.902;10.074;2022-12-18T03:54:10;52.67;;;19.63;;
29430;SDS011;16404;49.902;10.074;2022-12-18T03:57:04;52.50;;;21.25;;
29430;SDS011;16404;49.902;10.074;2022-12-18T03:59:56;57.42;;;22.02;;
29430;SDS011;16404;49.902;10.074;2022-12-18T04:02:57;57.53;;;21.05;;
29430;SDS011;16404;49.902;10.074;2022-12-18T04:05:52;53.70;;;19.27;;
29430;SDS011;16404;49.902;10.074;2022-12-18T04:08:40;53.92;;;20.75;;
29430;SDS011;16404;49.902;10.074;2022-12-18T04:11:27;51.25;;;20.70;;
29430;SDS011;16404;49.902;10.074;2022-12-18T04:14:12;55.08;;;21.65;;
29430;SDS011;16404;49.902;10.074;2022-12-18T04:16:57;50.25;;;20.20;;
29430;SDS011;16404;49.902;10.074;2022-12-18T04:19:47;50.83;;;20.88;;
29430;SDS011;16404;49.902;10.074;2022-12-18T04:22:32;50.50;;;20.20;;
29430;SDS011;16404;49.902;10.074;2022-12-18T04:25:17;51.20;;;20.73;;
29430;SDS011;16404;49.902;10.074;2022-12-18T04:28:15;50.92;;;19.88;;
29430;SDS011;16404;49.902;10.074;2022-12-18T04:30:59;51.35;;;20.15;;
29430;SDS011;16404;49.902;10.074;2022-12-18T04:33:45;45.40;;;20.63;;
29430;SDS011;16404;49.902;10.074;2022-12-18T04:36:31;49.20;;;20.73;;
29430;SDS011;16404;49.902;10.074;2022-12-18T04:39:16;62.28;;;20.70;;
29430;SDS011;16404;49.902;10.074;2022-12-18T04:42:02;48.60;;;20.77;;
29430;SDS011;16404;49.902;10.074;2022-12-18T04:44:47;48.67;;;20.00;;
29430;SDS011;16404;49.902;10.074;2022-12-18T04:50:15;48.03;;;19.20;;
29430;SDS011;16404;49.902;10.074;2022-12-18T04:53:03;52.15;;;20.95;;
29430;SDS011;16404;49.902;10.074;2022-12-18T04:55:47;52.75;;;21.92;;
29430;SDS011;16404;49.902;10.074;2022-12-18T04:58:32;55.15;;;22.45;;
29430;SDS011;16404;49.902;10.074;2022-12-18T05:01:17;50.42;;;20.85;;
29430;SDS011;16404;49.902;10.074;2022-12-18T05:04:02;48.35;;;21.08;;
29430;SDS011;16404;49.902;10.074;2022-12-18T05:06:46;55.45;;;21.33;;
29430;SDS011;16404;49.902;10.074;2022-12-18T05:09:31;47.53;;;20.77;;
29430;SDS011;16404;49.902;10.074;2022-12-18T05:12:16;53.53;;;20.73;;
29430;SDS011;16404;49.902;10.074;2022-12-18T05:15:00;49.97;;;21.25;;
29430;SDS011;16404;49.902;10.074;2022-12-18T05:17:45;54.55;;;21.35;;
29430;SDS011;16404;49.902;10.074;2022-12-18T05:20:30;48.65;;;19.95;;
29430;SDS011;16404;49.902;10.074;2022-12-18T05:23:14;54.53;;;20.45;;
29430;SDS011;16404;49.902;10.074;2022-12-18T05:25:59;54.75;;;22.33;;
29430;SDS011;16404;49.902;10.074;2022-12-18T05:28:45;63.35;;;26.65;;
29430;SDS011;16404;49.902;10.074;2022-12-18T05:31:30;53.83;;;21.50;;
29430;SDS011;16404;49.902;10.074;2022-12-18T05:34:15;58.10;;;22.63;;
29430;SDS011;16404;49.902;10.074;2022-12-18T05:36:59;61.55;;;25.50;;
29430;SDS011;16404;49.902;10.074;2022-12-18T05:39:44;53.88;;;23.27;;
29430;SDS011;16404;49.902;10.074;2022-12-18T05:42:28;60.20;;;23.73;;
29430;SDS011;16404;49.902;10.074;2022-12-18T05:45:14;55.80;;;21.63;;
29430;SDS011;16404;49.902;10.074;2022-12-18T05:47:58;57.80;;;24.33;;
29430;SDS011;16404;49.902;10.074;2022-12-18T05:50:43;59.78;;;23.17;;
29430;SDS011;16404;49.902;10.074;2022-12-18T05:53:29;66.55;;;29.35;;
29430;SDS011;16404;49.902;10.074;2022-12-18T05:56:15;66.90;;;25.35;;
29430;SDS011;16404;49.902;10.074;2022-12-18T05:59:01;61.33;;;24.23;;
29430;SDS011;16404;49.902;10.074;2022-12-18T06:01:46;59.95;;;23.13;;
29430;SDS011;16404;49.902;10.074;2022-12-18T06:04:31;53.42;;;21.33;;
29430;SDS011;16404;49.902;10.074;2022-12-18T06:07:16;57.80;;;21.30;;
29430;SDS011;16404;49.902;10.074;2022-12-18T06:10:01;56.95;;;22.50;;
29430;SDS011;16404;49.902;10.074;2022-12-18T06:12:45;56.38;;;23.25;;
29430;SDS011;16404;49.902;10.074;2022-12-18T06:15:30;62.92;;;24.02;;
29430;SDS011;16404;49.902;10.074;2022-12-18T06:18:15;61.63;;;23.88;;
29430;SDS011;16404;49.902;10.074;2022-12-18T06:20:59;54.47;;;22.42;;
29430;SDS011;16404;49.902;10.074;2022-12-18T06:23:44;56.22;;;21.65;;
29430;SDS011;16404;49.902;10.074;2022-12-18T06:26:29;50.67;;;20.08;;
29430;SDS011;16404;49.902;10.074;2022-12-18T06:29:13;61.10;;;24.33;;
29430;SDS011;16404;49.902;10.074;2022-12-18T06:31:58;55.63;;;21.92;;
29430;SDS011;16404;49.902;10.074;2022-12-18T06:34:43;56.42;;;22.45;;
29430;SDS011;16404;49.902;10.074;2022-12-18T06:37:27;53.63;;;21.33;;
29430;SDS011;16404;49.902;10.074;2022-12-18T06:40:12;53.42;;;21.20;;
29430;SDS011;16404;49.902;10.074;2022-12-18T06:42:56;60.95;;;20.85;;
29430;SDS011;16404;49.902;10.074;2022-12-18T06:45:41;44.80;;;19.63;;
29430;SDS011;16404;49.902;10.074;2022-12-18T06:48:25;57.08;;;22.45;;
29430;SDS011;16404;49.902;10.074;2022-12-18T06:51:10;60.55;;;22.38;;
29430;SDS011;16404;49.902;10.074;2022-12-18T06:53:55;64.28;;;24.30;;
29430;SDS011;16404;49.902;10.074;2022-12-18T06:56:39;53.83;;;22.77;;
29430;SDS011;16404;49.902;10.074;2022-12-18T06:59:24;57.92;;;22.13;;
29430;SDS011;16404;49.902;10.074;2022-12-18T07:02:10;66.43;;;23.17;;
29430;SDS011;16404;49.902;10.074;2022-12-18T07:04:56;60.75;;;23.27;;
29430;SDS011;16404;49.902;10.074;2022-12-18T07:07:40;69.43;;;25.05;;
29430;SDS011;16404;49.902;10.074;2022-12-18T07:10:25;64.97;;;22.30;;
29430;SDS011;16404;49.902;10.074;2022-12-18T07:13:10;75.30;;;23.27;;
29430;SDS011;16404;49.902;10.074;2022-12-18T07:15:54;65.95;;;23.38;;
29430;SDS011;16404;49.902;10.074;2022-12-18T07:18:39;62.83;;;22.67;;
29430;SDS011;16404;49.902;10.074;2022-12-18T07:21:24;76.43;;;25.23;;
29430;SDS011;16404;49.902;10.074;2022-12-18T07:24:09;64.15;;;22.92;;
29430;SDS011;16404;49.902;10.074;2022-12-18T07:29:37;58.42;;;21.83;;
29430;SDS011;16404;49.902;10.074;2022-12-18T07:32:22;65.93;;;23.83;;
29430;SDS011;16404;49.902;10.074;2022-12-18T07:35:07;66.25;;;23.92;;
29430;SDS011;16404;49.902;10.074;2022-12-18T07:37:51;53.80;;;23.17;;
29430;SDS011;16404;49.902;10.074;2022-12-18T07:43:20;63.63;;;23.45;;
29430;SDS011;16404;49.902;10.074;2022-12-18T07:46:05;68.22;;;23.85;;
29430;SDS011;16404;49.902;10.074;2022-12-18T07:48:50;81.43;;;26.25;;
29430;SDS011;16404;49.902;10.074;2022-12-18T07:51:34;78.55;;;27.42;;
29430;SDS011;16404;49.902;10.074;2022-12-18T07:54:19;74.10;;;26.58;;
29430;SDS011;16404;49.902;10.074;2022-12-18T07:57:03;63.15;;;26.30;;
29430;SDS011;16404;49.902;10.074;2022-12-18T07:59:48;78.57;;;28.23;;
29430;SDS011;16404;49.902;10.074;2022-12-18T08:05:17;75.57;;;28.37;;
29430;SDS011;16404;49.902;10.074;2022-12-18T08:08:01;84.75;;;31.30;;
29430;SDS011;16404;49.902;10.074;2022-12-18T08:10:46;84.10;;;28.50;;
29430;SDS011;16404;49.902;10.074;2022-12-18T08:13:30;94.72;;;29.70;;
29430;SDS011;16404;49.902;10.074;2022-12-18T08:16:15;75.57;;;27.33;;
29430;SDS011;16404;49.902;10.074;2022-12-18T08:19:00;80.72;;;27.02;;
29430;SDS011;16404;49.902;10.074;2022-12-18T08:21:44;76.00;;;28.27;;
29430;SDS011;16404;49.902;10.074;2022-12-18T08:24:30;78.00;;;26.70;;
29430;SDS011;16404;49.902;10.074;2022-12-18T08:29:58;77.63;;;27.55;;
29430;SDS011;16404;49.902;10.074;2022-12-18T08:35:27;74.22;;;26.08;;
29430;SDS011;16404;49.902;10.074;2022-12-18T08:38:12;78.78;;;29.20;;
29430;SDS011;16404;49.902;10.074;2022-12-18T08:41:00;84.45;;;28.17;;
29430;SDS011;16404;49.902;10.074;2022-12-18T08:43:46;85.22;;;30.52;;
29430;SDS011;16404;49.902;10.074;2022-12-18T08:46:49;94.18;;;34.65;;
29430;SDS011;16404;49.902;10.074;2022-12-18T08:49:34;107.65;;;37.92;;
29430;SDS011;16404;49.902;10.074;2022-12-18T08:52:19;82.80;;;30.60;;
29430;SDS011;16404;49.902;10.074;2022-12-18T08:55:03;92.45;;;34.15;;
29430;SDS011;16404;49.902;10.074;2022-12-18T08:57:48;86.82;;;28.92;;
29430;SDS011;16404;49.902;10.074;2022-12-18T09:00:33;84.22;;;30.85;;
29430;SDS011;16404;49.902;10.074;2022-12-18T09:03:19;79.07;;;30.73;;
29430;SDS011;16404;49.902;10.074;2022-12-18T09:06:06;75.72;;;28.23;;
29430;SDS011;16404;49.902;10.074;2022-12-18T09:08:51;71.20;;;26.70;;
29430;SDS011;16404;49.902;10.074;2022-12-18T09:11:35;80.78;;;28.10;;
29430;SDS011;16404;49.902;10.074;2022-12-18T09:17:04;70.88;;;26.50;;
29430;SDS011;16404;49.902;10.074;2022-12-18T09:19:48;74.18;;;27.58;;
29430;SDS011;16404;49.902;10.074;2022-12-18T09:22:33;83.00;;;28.90;;
29430;SDS011;16404;49.902;10.074;2022-12-18T09:25:18;76.65;;;28.33;;
29430;SDS011;16404;49.902;10.074;2022-12-18T09:30:48;79.40;;;28.42;;
29430;SDS011;16404;49.902;10.074;2022-12-18T09:33:36;82.85;;;28.15;;
29430;SDS011;16404;49.902;10.074;2022-12-18T09:36:21;64.60;;;25.83;;
29430;SDS011;16404;49.902;10.074;2022-12-18T09:39:05;77.80;;;28.20;;
29430;SDS011;16404;49.902;10.074;2022-12-18T09:41:54;77.28;;;28.73;;
29430;SDS011;16404;49.902;10.074;2022-12-18T09:44:42;82.20;;;28.95;;
29430;SDS011;16404;49.902;10.074;2022-12-18T09:47:38;83.07;;;30.27;;
29430;SDS011;16404;49.902;10.074;2022-12-18T09:50:34;78.68;;;27.33;;
29430;SDS011;16404;49.902;10.074;2022-12-18T09:53:24;73.85;;;27.52;;
29430;SDS011;16404;49.902;10.074;2022-12-18T09:56:15;76.75;;;27.70;;
29430;SDS011;16404;49.902;10.074;2022-12-18T09:59:03;80.45;;;29.40;;
29430;SDS011;16404;49.902;10.074;2022-12-18T10:01:48;93.95;;;29.05;;
29430;SDS011;16404;49.902;10.074;2022-12-18T10:04:33;83.20;;;28.10;;
29430;SDS011;16404;49.902;10.074;2022-12-18T10:07:19;69.78;;;27.90;;
29430;SDS011;16404;49.902;10.074;2022-12-18T10:25:22;76.53;;;27.02;;
29430;SDS011;16404;49.902;10.074;2022-12-18T10:28:37;79.20;;;28.20;;
29430;SDS011;16404;49.902;10.074;2022-12-18T10:31:23;87.95;;;28.67;;
29430;SDS011;16404;49.902;10.074;2022-12-18T10:34:09;76.57;;;28.02;;
29430;SDS011;16404;49.902;10.074;2022-12-18T10:36:55;76.97;;;28.65;;
29430;SDS011;16404;49.902;10.074;2022-12-18T10:39:42;82.03;;;30.48;;
29430;SDS011;16404;49.902;10.074;2022-12-18T10:42:29;85.90;;;29.83;;
29430;SDS011;16404;49.902;10.074;2022-12-18T10:45:16;77.75;;;29.25;;
29430;SDS011;16404;49.902;10.074;2022-12-18T10:48:19;94.78;;;37.88;;
29430;SDS011;16404;49.902;10.074;2022-12-18T10:51:27;82.00;;;31.30;;
29430;SDS011;16404;49.902;10.074;2022-12-18T10:54:24;79.75;;;31.58;;
29430;SDS011;16404;49.902;10.074;2022-12-18T10:57:17;85.13;;;31.75;;
29430;SDS011;16404;49.902;10.074;2022-12-18T11:00:38;78.50;;;30.77;;
29430;SDS011;16404;49.902;10.074;2022-12-18T11:03:30;85.75;;;29.83;;
29430;SDS011;16404;49.902;10.074;2022-12-18T11:06:16;82.65;;;31.95;;
29430;SDS011;16404;49.902;10.074;2022-12-18T11:09:05;79.90;;;30.92;;
29430;SDS011;16404;49.902;10.074;2022-12-18T11:12:03;70.82;;;27.45;;
29430;SDS011;16404;49.902;10.074;2022-12-18T11:14:58;79.70;;;27.98;;
29430;SDS011;16404;49.902;10.074;2022-12-18T11:17:43;118.47;;;44.22;;
29430;SDS011;16404;49.902;10.074;2022-12-18T11:20:52;73.18;;;26.25;;
29430;SDS011;16404;49.902;10.074;2022-12-18T11:23:58;68.03;;;23.95;;
29430;SDS011;16404;49.902;10.074;2022-12-18T11:26:42;67.57;;;22.60;;
29430;SDS011;16404;49.902;10.074;2022-12-18T11:29:34;58.20;;;21.05;;
29430;SDS011;16404;49.902;10.074;2022-12-18T11:36:03;59.30;;;21.02;;
29430;SDS011;16404;49.902;10.074;2022-12-18T11:38:35;56.92;;;20.35;;
29430;SDS011;16404;49.902;10.074;2022-12-18T11:50:43;58.08;;;21.80;;
29430;SDS011;16404;49.902;10.074;2022-12-18T11:53:31;64.28;;;24.35;;
29430;SDS011;16404;49.902;10.074;2022-12-18T11:56:30;54.47;;;21.17;;
29430;SDS011;16404;49.902;10.074;2022-12-18T12:09:29;55.28;;;20.58;;
29430;SDS011;16404;49.902;10.074;2022-12-18T12:20:47;54.58;;;20.30;;
29430;SDS011;16404;49.902;10.074;2022-12-18T12:26:38;61.30;;;20.60;;
29430;SDS011;16404;49.902;10.074;2022-12-18T12:29:36;57.22;;;21.05;;
29430;SDS011;16404;49.902;10.074;2022-12-18T12:36:00;55.38;;;21.10;;
29430;SDS011;16404;49.902;10.074;2022-12-18T12:40:13;54.42;;;20.20;;
29430;SDS011;16404;49.902;10.074;2022-12-18T12:43:19;53.92;;;20.45;;
29430;SDS011;16404;49.902;10.074;2022-12-18T12:46:05;48.72;;;18.92;;
29430;SDS011;16404;49.902;10.074;2022-12-18T12:48:58;56.28;;;21.08;;
29430;SDS011;16404;49.902;10.074;2022-12-18T12:51:46;52.88;;;20.30;;
29430;SDS011;16404;49.902;10.074;2022-12-18T12:54:48;53.45;;;21.15;;
29430;SDS011;16404;49.902;10.074;2022-12-18T12:57:34;58.50;;;20.67;;
29430;SDS011;16404;49.902;10.074;2022-12-18T13:00:26;58.75;;;20.73;;
29430;SDS011;16404;49.902;10.074;2022-12-18T13:09:16;54.05;;;19.85;;
29430;SDS011;16404;49.902;10.074;2022-12-18T13:12:04;58.08;;;21.33;;
29430;SDS011;16404;49.902;10.074;2022-12-18T13:15:19;52.67;;;19.38;;
29430;SDS011;16404;49.902;10.074;2022-12-18T13:23:39;54.30;;;21.05;;
29430;SDS011;16404;49.902;10.074;2022-12-18T13:29:14;76.55;;;30.58;;
29430;SDS011;16404;49.902;10.074;2022-12-18T13:32:25;99.10;;;38.28;;
29430;SDS011;16404;49.902;10.074;2022-12-18T13:38:02;73.95;;;28.63;;
29430;SDS011;16404;49.902;10.074;2022-12-18T13:41:24;61.08;;;24.77;;
29430;SDS011;16404;49.902;10.074;2022-12-18T13:44:25;66.13;;;27.30;;
29430;SDS011;16404;49.902;10.074;2022-12-18T13:47:26;67.43;;;26.70;;
29430;SDS011;16404;49.902;10.074;2022-12-18T13:50:23;72.30;;;27.35;;
29430;SDS011;16404;49.902;10.074;2022-12-18T13:53:15;61.78;;;25.55;;
29430;SDS011;16404;49.902;10.074;2022-12-18T13:56:23;65.00;;;25.67;;
29430;SDS011;16404;49.902;10.074;2022-12-18T14:05:25;58.28;;;23.98;;
29430;SDS011;16404;49.902;10.074;2022-12-18T14:08:12;57.97;;;23.60;;
29430;SDS011;16404;49.902;10.074;2022-12-18T14:10:58;66.57;;;25.15;;
29430;SDS011;16404;49.902;10.074;2022-12-18T14:13:45;57.85;;;23.00;;
29430;SDS011;16404;49.902;10.074;2022-12-18T14:16:30;58.80;;;22.27;;
29430;SDS011;16404;49.902;10.074;2022-12-18T14:19:16;57.17;;;23.70;;
29430;SDS011;16404;49.902;10.074;2022-12-18T14:22:02;59.50;;;21.75;;
29430;SDS011;16404;49.902;10.074;2022-12-18T14:24:47;59.78;;;23.08;;
29430;SDS011;16404;49.902;10.074;2022-12-18T14:30:45;100.95;;;33.35;;
29430;SDS011;16404;49.902;10.074;2022-12-18T14:33:30;59.97;;;22.67;;
29430;SDS011;16404;49.902;10.074;2022-12-18T14:36:19;57.42;;;22.20;;
29430;SDS011;16404;49.902;10.074;2022-12-18T14:39:13;56.40;;;21.55;;
29430;SDS011;16404;49.902;10.074;2022-12-18T14:42:01;54.38;;;21.30;;
29430;SDS011;16404;49.902;10.074;2022-12-18T14:44:45;59.03;;;22.08;;
29430;SDS011;16404;49.902;10.074;2022-12-18T14:47:36;57.33;;;21.88;;
29430;SDS011;16404;49.902;10.074;2022-12-18T14:50:57;60.33;;;23.48;;
29430;SDS011;16404;49.902;10.074;2022-12-18T14:56:41;60.92;;;24.98;;
29430;SDS011;16404;49.902;10.074;2022-12-18T14:59:28;50.65;;;21.35;;
29430;SDS011;16404;49.902;10.074;2022-12-18T15:02:23;63.10;;;23.38;;
29430;SDS011;16404;49.902;10.074;2022-12-18T15:07:59;63.13;;;21.73;;
29430;SDS011;16404;49.902;10.074;2022-12-18T15:10:47;53.10;;;21.77;;
29430;SDS011;16404;49.902;10.074;2022-12-18T15:13:32;50.53;;;20.48;;
29430;SDS011;16404;49.902;10.074;2022-12-18T15:19:01;58.88;;;22.88;;
29430;SDS011;16404;49.902;10.074;2022-12-18T15:21:46;54.85;;;21.20;;
29430;SDS011;16404;49.902;10.074;2022-12-18T15:24:31;53.40;;;22.13;;
29430;SDS011;16404;49.902;10.074;2022-12-18T15:27:23;66.15;;;28.42;;
29430;SDS011;16404;49.902;10.074;2022-12-18T15:30:23;59.60;;;26.02;;
29430;SDS011;16404;49.902;10.074;2022-12-18T15:33:25;59.45;;;24.75;;
29430;SDS011;16404;49.902;10.074;2022-12-18T15:36:13;68.05;;;26.83;;
29430;SDS011;16404;49.902;10.074;2022-12-18T15:38:59;58.92;;;23.58;;
29430;SDS011;16404;49.902;10.074;2022-12-18T15:41:43;60.70;;;23.13;;
29430;SDS011;16404;49.902;10.074;2022-12-18T15:44:49;57.65;;;22.70;;
29430;SDS011;16404;49.902;10.074;2022-12-18T15:47:36;58.88;;;22.83;;
29430;SDS011;16404;49.902;10.074;2022-12-18T15:50:20;59.53;;;22.92;;
29430;SDS011;16404;49.902;10.074;2022-12-18T15:53:05;60.40;;;24.08;;
29430;SDS011;16404;49.902;10.074;2022-12-18T15:55:52;59.97;;;22.60;;
29430;SDS011;16404;49.902;10.074;2022-12-18T15:58:55;74.45;;;26.77;;
29430;SDS011;16404;49.902;10.074;2022-12-18T16:01:41;70.70;;;26.52;;
29430;SDS011;16404;49.902;10.074;2022-12-18T16:04:27;69.75;;;29.08;;
29430;SDS011;16404;49.902;10.074;2022-12-18T16:07:12;76.03;;;29.10;;
29430;SDS011;16404;49.902;10.074;2022-12-18T16:09:56;70.50;;;26.50;;
29430;SDS011;16404;49.902;10.074;2022-12-18T16:12:41;62.88;;;24.45;;
29430;SDS011;16404;49.902;10.074;2022-12-18T16:15:26;75.28;;;27.05;;
29430;SDS011;16404;49.902;10.074;2022-12-18T16:18:10;75.90;;;26.45;;
29430;SDS011;16404;49.902;10.074;2022-12-18T16:20:55;65.85;;;26.30;;
29430;SDS011;16404;49.902;10.074;2022-12-18T16:23:39;72.72;;;28.60;;
29430;SDS011;16404;49.902;10.074;2022-12-18T16:26:24;74.35;;;27.80;;
29430;SDS011;16404;49.902;10.074;2022-12-18T16:29:09;58.58;;;23.80;;
29430;SDS011;16404;49.902;10.074;2022-12-18T16:31:54;60.22;;;25.33;;
29430;SDS011;16404;49.902;10.074;2022-12-18T16:34:42;66.82;;;26.63;;
29430;SDS011;16404;49.902;10.074;2022-12-18T16:40:12;54.75;;;22.13;;
29430;SDS011;16404;49.902;10.074;2022-12-18T16:42:58;69.88;;;26.38;;
29430;SDS011;16404;49.902;10.074;2022-12-18T16:45:42;72.68;;;24.38;;
29430;SDS011;16404;49.902;10.074;2022-12-18T16:48:27;69.57;;;27.00;;
29430;SDS011;16404;49.902;10.074;2022-12-18T16:51:11;67.63;;;24.98;;
29430;SDS011;16404;49.902;10.074;2022-12-18T16:56:40;67.13;;;24.02;;
29430;SDS011;16404;49.902;10.074;2022-12-18T16:59:25;66.22;;;26.05;;
29430;SDS011;16404;49.902;10.074;2022-12-18T17:05:14;65.05;;;24.27;;
29430;SDS011;16404;49.902;10.074;2022-12-18T17:10:43;62.22;;;23.98;;
29430;SDS011;16404;49.902;10.074;2022-12-18T17:13:28;67.88;;;26.42;;
29430;SDS011;16404;49.902;10.074;2022-12-18T17:16:12;65.78;;;27.45;;
29430;SDS011;16404;49.902;10.074;2022-12-18T17:21:42;73.45;;;28.35;;
29430;SDS011;16404;49.902;10.074;2022-12-18T17:24:28;54.88;;;23.48;;
29430;SDS011;16404;49.902;10.074;2022-12-18T17:27:12;67.50;;;24.63;;
29430;SDS011;16404;49.902;10.074;2022-12-18T17:29:57;65.70;;;25.20;;
29430;SDS011;16404;49.902;10.074;2022-12-18T17:35:26;61.72;;;24.02;;
29430;SDS011;16404;49.902;10.074;2022-12-18T17:40:59;66.63;;;25.60;;
29430;SDS011;16404;49.902;10.074;2022-12-18T17:43:52;58.75;;;24.65;;
29430;SDS011;16404;49.902;10.074;2022-12-18T17:46:41;63.75;;;23.17;;
29430;SDS011;16404;49.902;10.074;2022-12-18T17:49:26;61.17;;;24.63;;
29430;SDS011;16404;49.902;10.074;2022-12-18T17:54:55;61.55;;;24.30;;
29430;SDS011;16404;49.902;10.074;2022-12-18T18:00:24;78.32;;;33.33;;
29430;SDS011;16404;49.902;10.074;2022-12-18T18:03:08;75.82;;;29.85;;
29430;SDS011;16404;49.902;10.074;2022-12-18T18:05:57;61.63;;;26.80;;
29430;SDS011;16404;49.902;10.074;2022-12-18T18:08:42;69.57;;;30.30;;
29430;SDS011;16404;49.902;10.074;2022-12-18T18:11:27;73.53;;;32.55;;
29430;SDS011;16404;49.902;10.074;2022-12-18T18:14:30;68.20;;;27.73;;
29430;SDS011;16404;49.902;10.074;2022-12-18T18:17:15;65.32;;;28.40;;
29430;SDS011;16404;49.902;10.074;2022-12-18T18:20:00;70.82;;;28.83;;
29430;SDS011;16404;49.902;10.074;2022-12-18T18:25:29;67.47;;;26.13;;
29430;SDS011;16404;49.902;10.074;2022-12-18T18:31:02;67.55;;;28.33;;
29430;SDS011;16404;49.902;10.074;2022-12-18T18:33:47;75.93;;;30.58;;
29430;SDS011;16404;49.902;10.074;2022-12-18T18:36:32;61.70;;;26.77;;
29430;SDS011;16404;49.902;10.074;2022-12-18T18:39:17;77.63;;;28.75;;
29430;SDS011;16404;49.902;10.074;2022-12-18T18:42:03;83.38;;;33.40;;
29430;SDS011;16404;49.902;10.074;2022-12-18T18:47:32;70.10;;;27.35;;
29430;SDS011;16404;49.902;10.074;2022-12-18T18:50:17;70.85;;;30.08;;
29430;SDS011;16404;49.902;10.074;2022-12-18T18:53:03;78.40;;;32.53;;
29430;SDS011;16404;49.902;10.074;2022-12-18T18:55:47;98.40;;;37.42;;
29430;SDS011;16404;49.902;10.074;2022-12-18T18:58:33;80.78;;;33.10;;
29430;SDS011;16404;49.902;10.074;2022-12-18T19:01:18;133.55;;;46.35;;
29430;SDS011;16404;49.902;10.074;2022-12-18T19:04:03;123.53;;;40.13;;
29430;SDS011;16404;49.902;10.074;2022-12-18T19:06:48;180.45;;;55.50;;
29430;SDS011;16404;49.902;10.074;2022-12-18T19:12:19;146.43;;;45.88;;
29430;SDS011;16404;49.902;10.074;2022-12-18T19:15:22;139.38;;;42.63;;
29430;SDS011;16404;49.902;10.074;2022-12-18T19:18:07;160.75;;;46.67;;
29430;SDS011;16404;49.902;10.074;2022-12-18T19:23:41;89.05;;;32.13;;